sensor_id;sensor_type;location;lat;lon;timestamp;P1;durP1;ratioP1;P2;durP2;ratioP2
52554;SDS011;38455;52.710;6.502;2022-09-01T00:01:28;4.13;;;1.40;;
52554;SDS011;38455;52.710;6.502;2022-09-01T00:03:54;3.25;;;1.27;;
52554;SDS011;38455;52.710;6.502;2022-09-01T00:06:23;1.27;;;0.85;;
52554;SDS011;38455;52.710;6.502;2022-09-01T00:08:54;7.07;;;2.08;;
52554;SDS011;38455;52.710;6.502;2022-09-01T00:11:21;5.50;;;1.42;;
52554;SDS011;38455;52.710;6.502;2022-09-01T00:13:49;2.90;;;1.50;;
52554;SDS011;38455;52.710;6.502;2022-09-01T00:16:16;3.90;;;1.27;;
52554;SDS011;38455;52.710;6.502;2022-09-01T00:18:43;1.92;;;1.33;;
52554;SDS011;38455;52.710;6.502;2022-09-01T00:21:13;3.88;;;1.67;;
52554;SDS011;38455;52.710;6.502;2022-09-01T00:23:41;3.58;;;1.60;;
52554;SDS011;38455;52.710;6.502;2022-09-01T00:26:06;5.43;;;1.25;;
52554;SDS011;38455;52.710;6.502;2022-09-01T00:28:33;4.68;;;1.65;;
52554;SDS011;38455;52.710;6.502;2022-09-01T00:31:00;2.58;;;1.45;;
52554;SDS011;38455;52.710;6.502;2022-09-01T00:33:26;6.18;;;1.70;;
52554;SDS011;38455;52.710;6.502;2022-09-01T00:35:52;3.30;;;1.25;;
52554;SDS011;38455;52.710;6.502;2022-09-01T00:38:18;7.00;;;1.77;;
52554;SDS011;38455;52.710;6.502;2022-09-01T00:40:44;3.05;;;1.42;;
52554;SDS011;38455;52.710;6.502;2022-09-01T00:43:14;6.95;;;1.30;;
52554;SDS011;38455;52.710;6.502;2022-09-01T00:45:44;5.43;;;1.65;;
52554;SDS011;38455;52.710;6.502;2022-09-01T00:48:10;3.20;;;1.30;;
52554;SDS011;38455;52.710;6.502;2022-09-01T00:50:35;6.25;;;1.65;;
52554;SDS011;38455;52.710;6.502;2022-09-01T00:53:01;2.53;;;1.40;;
52554;SDS011;38455;52.710;6.502;2022-09-01T00:55:31;3.70;;;1.30;;
52554;SDS011;38455;52.710;6.502;2022-09-01T00:57:59;4.18;;;1.17;;
52554;SDS011;38455;52.710;6.502;2022-09-01T01:00:28;3.03;;;1.40;;
52554;SDS011;38455;52.710;6.502;2022-09-01T01:02:55;6.72;;;1.27;;
52554;SDS011;38455;52.710;6.502;2022-09-01T01:05:21;4.93;;;1.90;;
52554;SDS011;38455;52.710;6.502;2022-09-01T01:07:55;2.67;;;1.30;;
52554;SDS011;38455;52.710;6.502;2022-09-01T01:10:21;2.78;;;1.85;;
52554;SDS011;38455;52.710;6.502;2022-09-01T01:12:48;3.15;;;1.30;;
52554;SDS011;38455;52.710;6.502;2022-09-01T01:15:15;2.85;;;1.48;;
52554;SDS011;38455;52.710;6.502;2022-09-01T01:17:42;4.25;;;1.38;;
52554;SDS011;38455;52.710;6.502;2022-09-01T01:20:08;3.47;;;1.02;;
52554;SDS011;38455;52.710;6.502;2022-09-01T01:23:09;4.03;;;1.40;;
52554;SDS011;38455;52.710;6.502;2022-09-01T01:25:47;4.15;;;1.20;;
52554;SDS011;38455;52.710;6.502;2022-09-01T01:28:17;3.65;;;1.25;;
52554;SDS011;38455;52.710;6.502;2022-09-01T01:30:45;3.78;;;1.10;;
52554;SDS011;38455;52.710;6.502;2022-09-01T01:33:17;5.43;;;1.48;;
52554;SDS011;38455;52.710;6.502;2022-09-01T01:35:44;5.05;;;1.42;;
52554;SDS011;38455;52.710;6.502;2022-09-01T01:38:11;2.45;;;1.33;;
52554;SDS011;38455;52.710;6.502;2022-09-01T01:40:39;3.97;;;1.40;;
52554;SDS011;38455;52.710;6.502;2022-09-01T01:43:05;2.83;;;1.20;;
52554;SDS011;38455;52.710;6.502;2022-09-01T01:45:32;2.33;;;1.50;;
52554;SDS011;38455;52.710;6.502;2022-09-01T01:47:58;4.40;;;1.30;;
52554;SDS011;38455;52.710;6.502;2022-09-01T01:50:31;3.88;;;1.40;;
52554;SDS011;38455;52.710;6.502;2022-09-01T01:53:00;2.45;;;1.10;;
52554;SDS011;38455;52.710;6.502;2022-09-01T01:55:28;2.25;;;1.30;;
52554;SDS011;38455;52.710;6.502;2022-09-01T01:57:55;1.73;;;1.25;;
52554;SDS011;38455;52.710;6.502;2022-09-01T02:00:23;2.42;;;1.30;;
52554;SDS011;38455;52.710;6.502;2022-09-01T02:02:51;2.13;;;1.27;;
52554;SDS011;38455;52.710;6.502;2022-09-01T02:05:22;2.78;;;1.75;;
52554;SDS011;38455;52.710;6.502;2022-09-01T02:07:57;7.35;;;1.30;;
52554;SDS011;38455;52.710;6.502;2022-09-01T02:10:31;1.88;;;1.17;;
52554;SDS011;38455;52.710;6.502;2022-09-01T02:13:06;3.42;;;1.38;;
52554;SDS011;38455;52.710;6.502;2022-09-01T02:15:35;2.15;;;1.27;;
52554;SDS011;38455;52.710;6.502;2022-09-01T02:18:12;1.73;;;1.17;;
52554;SDS011;38455;52.710;6.502;2022-09-01T02:20:43;2.40;;;1.20;;
52554;SDS011;38455;52.710;6.502;2022-09-01T02:23:11;2.53;;;1.20;;
52554;SDS011;38455;52.710;6.502;2022-09-01T02:25:40;2.63;;;1.23;;
52554;SDS011;38455;52.710;6.502;2022-09-01T02:28:08;2.67;;;1.50;;
52554;SDS011;38455;52.710;6.502;2022-09-01T02:30:39;3.85;;;1.20;;
52554;SDS011;38455;52.710;6.502;2022-09-01T02:33:09;2.63;;;1.50;;
52554;SDS011;38455;52.710;6.502;2022-09-01T02:35:48;6.75;;;1.80;;
52554;SDS011;38455;52.710;6.502;2022-09-01T02:38:19;2.97;;;1.52;;
52554;SDS011;38455;52.710;6.502;2022-09-01T02:40:47;3.35;;;1.60;;
52554;SDS011;38455;52.710;6.502;2022-09-01T02:43:14;3.83;;;1.48;;
52554;SDS011;38455;52.710;6.502;2022-09-01T02:45:44;3.35;;;1.40;;
52554;SDS011;38455;52.710;6.502;2022-09-01T02:48:30;2.63;;;1.50;;
52554;SDS011;38455;52.710;6.502;2022-09-01T02:51:00;3.28;;;1.48;;
52554;SDS011;38455;52.710;6.502;2022-09-01T02:53:30;1.95;;;1.42;;
52554;SDS011;38455;52.710;6.502;2022-09-01T02:55:59;11.30;;;1.80;;
52554;SDS011;38455;52.710;6.502;2022-09-01T02:58:26;2.70;;;1.67;;
52554;SDS011;38455;52.710;6.502;2022-09-01T03:00:54;2.85;;;1.65;;
52554;SDS011;38455;52.710;6.502;2022-09-01T03:03:22;2.30;;;1.38;;
52554;SDS011;38455;52.710;6.502;2022-09-01T03:05:51;2.30;;;1.50;;
52554;SDS011;38455;52.710;6.502;2022-09-01T03:08:19;2.45;;;1.45;;
52554;SDS011;38455;52.710;6.502;2022-09-01T03:10:47;1.98;;;1.30;;
52554;SDS011;38455;52.710;6.502;2022-09-01T03:13:13;7.25;;;1.98;;
52554;SDS011;38455;52.710;6.502;2022-09-01T03:15:41;3.25;;;1.70;;
52554;SDS011;38455;52.710;6.502;2022-09-01T03:18:08;2.22;;;1.50;;
52554;SDS011;38455;52.710;6.502;2022-09-01T03:20:36;2.47;;;1.50;;
52554;SDS011;38455;52.710;6.502;2022-09-01T03:23:04;2.30;;;1.50;;
52554;SDS011;38455;52.710;6.502;2022-09-01T03:25:33;6.00;;;1.50;;
52554;SDS011;38455;52.710;6.502;2022-09-01T03:28:01;4.05;;;1.40;;
52554;SDS011;38455;52.710;6.502;2022-09-01T03:30:29;3.78;;;1.90;;
52554;SDS011;38455;52.710;6.502;2022-09-01T03:32:56;2.85;;;1.42;;
52554;SDS011;38455;52.710;6.502;2022-09-01T03:35:23;3.47;;;1.70;;
52554;SDS011;38455;52.710;6.502;2022-09-01T03:37:50;2.35;;;1.27;;
52554;SDS011;38455;52.710;6.502;2022-09-01T03:40:16;3.08;;;1.73;;
52554;SDS011;38455;52.710;6.502;2022-09-01T03:42:42;7.97;;;1.63;;
52554;SDS011;38455;52.710;6.502;2022-09-01T03:45:09;5.72;;;1.80;;
52554;SDS011;38455;52.710;6.502;2022-09-01T03:47:39;3.13;;;1.70;;
52554;SDS011;38455;52.710;6.502;2022-09-01T03:50:09;2.33;;;1.73;;
52554;SDS011;38455;52.710;6.502;2022-09-01T03:55:10;3.22;;;1.70;;
52554;SDS011;38455;52.710;6.502;2022-09-01T03:57:36;1.95;;;1.30;;
52554;SDS011;38455;52.710;6.502;2022-09-01T04:00:06;2.05;;;1.40;;
52554;SDS011;38455;52.710;6.502;2022-09-01T04:02:36;4.40;;;1.95;;
52554;SDS011;38455;52.710;6.502;2022-09-01T04:05:02;4.13;;;1.83;;
52554;SDS011;38455;52.710;6.502;2022-09-01T04:07:28;4.43;;;2.05;;
52554;SDS011;38455;52.710;6.502;2022-09-01T04:09:54;2.97;;;1.55;;
52554;SDS011;38455;52.710;6.502;2022-09-01T04:12:19;4.55;;;1.52;;
52554;SDS011;38455;52.710;6.502;2022-09-01T04:14:46;2.63;;;1.50;;
52554;SDS011;38455;52.710;6.502;2022-09-01T04:17:12;2.33;;;1.55;;
52554;SDS011;38455;52.710;6.502;2022-09-01T04:19:56;4.68;;;2.05;;
52554;SDS011;38455;52.710;6.502;2022-09-01T04:22:22;2.58;;;1.70;;
52554;SDS011;38455;52.710;6.502;2022-09-01T04:24:53;3.55;;;2.00;;
52554;SDS011;38455;52.710;6.502;2022-09-01T04:27:18;4.78;;;1.95;;
52554;SDS011;38455;52.710;6.502;2022-09-01T04:29:47;3.00;;;1.33;;
52554;SDS011;38455;52.710;6.502;2022-09-01T04:32:12;6.50;;;1.40;;
52554;SDS011;38455;52.710;6.502;2022-09-01T04:34:39;2.88;;;2.17;;
52554;SDS011;38455;52.710;6.502;2022-09-01T04:39:39;4.20;;;1.85;;
52554;SDS011;38455;52.710;6.502;2022-09-01T04:42:12;3.33;;;1.60;;
52554;SDS011;38455;52.710;6.502;2022-09-01T04:44:38;3.53;;;1.80;;
52554;SDS011;38455;52.710;6.502;2022-09-01T04:47:04;4.13;;;1.80;;
52554;SDS011;38455;52.710;6.502;2022-09-01T04:49:35;4.35;;;1.65;;
52554;SDS011;38455;52.710;6.502;2022-09-01T04:52:02;2.42;;;1.63;;
52554;SDS011;38455;52.710;6.502;2022-09-01T04:54:28;3.60;;;1.75;;
52554;SDS011;38455;52.710;6.502;2022-09-01T04:56:56;3.70;;;1.88;;
52554;SDS011;38455;52.710;6.502;2022-09-01T04:59:22;3.05;;;1.77;;
52554;SDS011;38455;52.710;6.502;2022-09-01T05:01:51;5.55;;;1.92;;
52554;SDS011;38455;52.710;6.502;2022-09-01T05:04:23;3.05;;;2.10;;
52554;SDS011;38455;52.710;6.502;2022-09-01T05:06:52;6.13;;;2.00;;
52554;SDS011;38455;52.710;6.502;2022-09-01T05:09:21;9.00;;;2.00;;
52554;SDS011;38455;52.710;6.502;2022-09-01T05:11:49;2.40;;;1.88;;
52554;SDS011;38455;52.710;6.502;2022-09-01T05:14:15;2.78;;;2.00;;
52554;SDS011;38455;52.710;6.502;2022-09-01T05:16:45;5.13;;;2.08;;
52554;SDS011;38455;52.710;6.502;2022-09-01T05:19:11;3.08;;;2.05;;
52554;SDS011;38455;52.710;6.502;2022-09-01T05:21:44;4.05;;;2.00;;
52554;SDS011;38455;52.710;6.502;2022-09-01T05:24:20;2.53;;;1.70;;
52554;SDS011;38455;52.710;6.502;2022-09-01T05:26:46;3.08;;;1.80;;
52554;SDS011;38455;52.710;6.502;2022-09-01T05:29:13;2.60;;;2.10;;
52554;SDS011;38455;52.710;6.502;2022-09-01T05:31:40;6.05;;;1.95;;
52554;SDS011;38455;52.710;6.502;2022-09-01T05:34:07;5.63;;;1.73;;
52554;SDS011;38455;52.710;6.502;2022-09-01T05:36:34;4.68;;;2.35;;
52554;SDS011;38455;52.710;6.502;2022-09-01T05:39:04;3.33;;;1.80;;
52554;SDS011;38455;52.710;6.502;2022-09-01T05:41:31;9.75;;;2.22;;
52554;SDS011;38455;52.710;6.502;2022-09-01T05:44:00;3.75;;;1.65;;
52554;SDS011;38455;52.710;6.502;2022-09-01T05:46:28;4.05;;;1.60;;
52554;SDS011;38455;52.710;6.502;2022-09-01T05:48:54;2.10;;;1.65;;
52554;SDS011;38455;52.710;6.502;2022-09-01T05:51:22;4.32;;;2.15;;
52554;SDS011;38455;52.710;6.502;2022-09-01T05:53:55;5.50;;;1.90;;
52554;SDS011;38455;52.710;6.502;2022-09-01T05:56:24;3.97;;;1.80;;
52554;SDS011;38455;52.710;6.502;2022-09-01T05:58:51;4.78;;;1.52;;
52554;SDS011;38455;52.710;6.502;2022-09-01T06:01:27;2.45;;;1.50;;
52554;SDS011;38455;52.710;6.502;2022-09-01T06:03:57;4.22;;;1.63;;
52554;SDS011;38455;52.710;6.502;2022-09-01T06:06:27;3.05;;;1.67;;
52554;SDS011;38455;52.710;6.502;2022-09-01T06:08:56;4.53;;;1.42;;
52554;SDS011;38455;52.710;6.502;2022-09-01T06:11:24;4.13;;;1.30;;
52554;SDS011;38455;52.710;6.502;2022-09-01T06:13:51;2.10;;;1.23;;
52554;SDS011;38455;52.710;6.502;2022-09-01T06:16:21;3.45;;;1.30;;
52554;SDS011;38455;52.710;6.502;2022-09-01T06:18:48;6.03;;;1.33;;
52554;SDS011;38455;52.710;6.502;2022-09-01T06:21:18;3.15;;;1.33;;
52554;SDS011;38455;52.710;6.502;2022-09-01T06:23:45;6.10;;;1.30;;
52554;SDS011;38455;52.710;6.502;2022-09-01T06:26:18;4.70;;;1.80;;
52554;SDS011;38455;52.710;6.502;2022-09-01T06:28:45;1.77;;;1.08;;
52554;SDS011;38455;52.710;6.502;2022-09-01T06:31:11;4.03;;;1.13;;
52554;SDS011;38455;52.710;6.502;2022-09-01T06:33:37;2.85;;;1.35;;
52554;SDS011;38455;52.710;6.502;2022-09-01T06:36:03;2.40;;;1.38;;
52554;SDS011;38455;52.710;6.502;2022-09-01T06:38:30;3.25;;;1.27;;
52554;SDS011;38455;52.710;6.502;2022-09-01T06:40:59;1.77;;;1.02;;
52554;SDS011;38455;52.710;6.502;2022-09-01T06:43:28;1.52;;;0.88;;
52554;SDS011;38455;52.710;6.502;2022-09-01T06:45:55;5.00;;;1.13;;
52554;SDS011;38455;52.710;6.502;2022-09-01T06:48:20;4.25;;;1.10;;
52554;SDS011;38455;52.710;6.502;2022-09-01T06:50:47;3.67;;;1.48;;
52554;SDS011;38455;52.710;6.502;2022-09-01T06:53:14;1.83;;;1.00;;
52554;SDS011;38455;52.710;6.502;2022-09-01T06:55:43;2.53;;;1.02;;
52554;SDS011;38455;52.710;6.502;2022-09-01T06:58:10;2.47;;;1.10;;
52554;SDS011;38455;52.710;6.502;2022-09-01T07:00:39;2.03;;;0.98;;
52554;SDS011;38455;52.710;6.502;2022-09-01T07:03:09;3.45;;;1.33;;
52554;SDS011;38455;52.710;6.502;2022-09-01T07:05:42;8.23;;;1.60;;
52554;SDS011;38455;52.710;6.502;2022-09-01T07:08:10;1.85;;;1.00;;
52554;SDS011;38455;52.710;6.502;2022-09-01T07:10:45;2.17;;;1.10;;
52554;SDS011;38455;52.710;6.502;2022-09-01T07:13:15;4.05;;;1.20;;
52554;SDS011;38455;52.710;6.502;2022-09-01T07:15:48;2.47;;;1.10;;
52554;SDS011;38455;52.710;6.502;2022-09-01T07:18:16;4.97;;;1.02;;
52554;SDS011;38455;52.710;6.502;2022-09-01T07:20:49;5.45;;;1.38;;
52554;SDS011;38455;52.710;6.502;2022-09-01T07:23:17;2.97;;;1.10;;
52554;SDS011;38455;52.710;6.502;2022-09-01T07:25:48;2.45;;;0.90;;
52554;SDS011;38455;52.710;6.502;2022-09-01T07:28:19;4.90;;;1.38;;
52554;SDS011;38455;52.710;6.502;2022-09-01T07:30:47;2.67;;;1.55;;
52554;SDS011;38455;52.710;6.502;2022-09-01T07:33:17;3.85;;;1.02;;
52554;SDS011;38455;52.710;6.502;2022-09-01T07:35:49;2.60;;;1.00;;
52554;SDS011;38455;52.710;6.502;2022-09-01T07:38:19;3.28;;;1.02;;
52554;SDS011;38455;52.710;6.502;2022-09-01T07:40:45;2.13;;;1.08;;
52554;SDS011;38455;52.710;6.502;2022-09-01T07:43:24;3.15;;;0.98;;
52554;SDS011;38455;52.710;6.502;2022-09-01T07:45:52;3.15;;;1.15;;
52554;SDS011;38455;52.710;6.502;2022-09-01T07:48:20;2.25;;;0.85;;
52554;SDS011;38455;52.710;6.502;2022-09-01T07:50:48;2.00;;;0.80;;
52554;SDS011;38455;52.710;6.502;2022-09-01T07:53:18;3.85;;;0.80;;
52554;SDS011;38455;52.710;6.502;2022-09-01T07:55:46;1.88;;;0.98;;
52554;SDS011;38455;52.710;6.502;2022-09-01T07:58:16;2.03;;;0.93;;
52554;SDS011;38455;52.710;6.502;2022-09-01T08:00:43;1.63;;;0.70;;
52554;SDS011;38455;52.710;6.502;2022-09-01T08:03:14;7.05;;;1.33;;
52554;SDS011;38455;52.710;6.502;2022-09-01T08:05:41;3.47;;;0.95;;
52554;SDS011;38455;52.710;6.502;2022-09-01T08:08:07;2.53;;;1.00;;
52554;SDS011;38455;52.710;6.502;2022-09-01T08:10:33;5.55;;;1.20;;
52554;SDS011;38455;52.710;6.502;2022-09-01T08:13:02;1.80;;;0.93;;
52554;SDS011;38455;52.710;6.502;2022-09-01T08:15:27;6.35;;;1.15;;
52554;SDS011;38455;52.710;6.502;2022-09-01T08:17:53;1.95;;;0.90;;
52554;SDS011;38455;52.710;6.502;2022-09-01T08:20:19;3.45;;;1.33;;
52554;SDS011;38455;52.710;6.502;2022-09-01T08:22:44;5.32;;;1.58;;
52554;SDS011;38455;52.710;6.502;2022-09-01T08:25:10;2.33;;;0.82;;
52554;SDS011;38455;52.710;6.502;2022-09-01T08:27:36;3.50;;;0.90;;
52554;SDS011;38455;52.710;6.502;2022-09-01T08:30:06;4.35;;;0.88;;
52554;SDS011;38455;52.710;6.502;2022-09-01T08:32:34;5.47;;;1.20;;
52554;SDS011;38455;52.710;6.502;2022-09-01T08:35:01;2.55;;;0.75;;
52554;SDS011;38455;52.710;6.502;2022-09-01T08:37:29;5.97;;;1.05;;
52554;SDS011;38455;52.710;6.502;2022-09-01T08:39:55;3.83;;;0.88;;
52554;SDS011;38455;52.710;6.502;2022-09-01T08:42:24;2.83;;;1.13;;
52554;SDS011;38455;52.710;6.502;2022-09-01T08:47:52;3.45;;;0.82;;
52554;SDS011;38455;52.710;6.502;2022-09-01T08:50:19;4.30;;;0.93;;
52554;SDS011;38455;52.710;6.502;2022-09-01T08:52:46;3.53;;;0.63;;
52554;SDS011;38455;52.710;6.502;2022-09-01T08:55:25;3.45;;;0.90;;
52554;SDS011;38455;52.710;6.502;2022-09-01T08:57:56;7.85;;;1.23;;
52554;SDS011;38455;52.710;6.502;2022-09-01T09:00:25;4.05;;;1.02;;
52554;SDS011;38455;52.710;6.502;2022-09-01T09:03:05;1.85;;;0.70;;
52554;SDS011;38455;52.710;6.502;2022-09-01T09:05:56;1.52;;;0.63;;
52554;SDS011;38455;52.710;6.502;2022-09-01T09:16:55;3.47;;;0.57;;
52554;SDS011;38455;52.710;6.502;2022-09-01T09:21:50;0.65;;;0.40;;
52554;SDS011;38455;52.710;6.502;2022-09-01T09:24:31;5.70;;;0.40;;
52554;SDS011;38455;52.710;6.502;2022-09-01T09:27:26;3.25;;;0.70;;
52554;SDS011;38455;52.710;6.502;2022-09-01T09:29:54;3.40;;;0.50;;
52554;SDS011;38455;52.710;6.502;2022-09-01T09:32:43;2.63;;;0.55;;
52554;SDS011;38455;52.710;6.502;2022-09-01T09:35:22;1.42;;;0.68;;
52554;SDS011;38455;52.710;6.502;2022-09-01T09:37:50;2.33;;;1.27;;
52554;SDS011;38455;52.710;6.502;2022-09-01T09:40:24;2.83;;;0.52;;
52554;SDS011;38455;52.710;6.502;2022-09-01T09:45:21;5.28;;;0.73;;
52554;SDS011;38455;52.710;6.502;2022-09-01T09:47:49;1.75;;;0.73;;
52554;SDS011;38455;52.710;6.502;2022-09-01T09:50:23;1.67;;;0.88;;
52554;SDS011;38455;52.710;6.502;2022-09-01T09:52:54;1.30;;;0.60;;
52554;SDS011;38455;52.710;6.502;2022-09-01T09:55:36;5.80;;;0.80;;
52554;SDS011;38455;52.710;6.502;2022-09-01T09:58:16;1.27;;;0.57;;
52554;SDS011;38455;52.710;6.502;2022-09-01T10:01:01;3.28;;;0.88;;
52554;SDS011;38455;52.710;6.502;2022-09-01T10:03:36;1.17;;;0.57;;
52554;SDS011;38455;52.710;6.502;2022-09-01T10:06:08;2.35;;;0.60;;
52554;SDS011;38455;52.710;6.502;2022-09-01T10:08:54;4.32;;;0.60;;
52554;SDS011;38455;52.710;6.502;2022-09-01T10:11:24;1.70;;;0.60;;
52554;SDS011;38455;52.710;6.502;2022-09-01T10:13:51;1.80;;;0.52;;
52554;SDS011;38455;52.710;6.502;2022-09-01T10:16:21;2.60;;;0.65;;
52554;SDS011;38455;52.710;6.502;2022-09-01T10:18:55;3.65;;;0.50;;
52554;SDS011;38455;52.710;6.502;2022-09-01T10:24:05;0.82;;;0.43;;
52554;SDS011;38455;52.710;6.502;2022-09-01T10:26:52;0.98;;;0.60;;
52554;SDS011;38455;52.710;6.502;2022-09-01T10:29:24;0.88;;;0.30;;
52554;SDS011;38455;52.710;6.502;2022-09-01T10:32:01;2.15;;;0.82;;
52554;SDS011;38455;52.710;6.502;2022-09-01T10:34:32;2.20;;;0.63;;
52554;SDS011;38455;52.710;6.502;2022-09-01T10:37:01;2.30;;;0.65;;
52554;SDS011;38455;52.710;6.502;2022-09-01T10:39:29;4.35;;;0.60;;
52554;SDS011;38455;52.710;6.502;2022-09-01T10:41:55;0.98;;;0.50;;
52554;SDS011;38455;52.710;6.502;2022-09-01T10:44:29;1.10;;;0.57;;
52554;SDS011;38455;52.710;6.502;2022-09-01T10:47:42;1.60;;;0.60;;
52554;SDS011;38455;52.710;6.502;2022-09-01T10:56:08;1.52;;;0.68;;
52554;SDS011;38455;52.710;6.502;2022-09-01T10:58:14;2.38;;;0.50;;
52554;SDS011;38455;52.710;6.502;2022-09-01T11:00:59;1.08;;;0.40;;
52554;SDS011;38455;52.710;6.502;2022-09-01T11:03:47;1.73;;;0.47;;
52554;SDS011;38455;52.710;6.502;2022-09-01T11:06:42;1.33;;;0.63;;
52554;SDS011;38455;52.710;6.502;2022-09-01T11:09:26;0.77;;;0.30;;
52554;SDS011;38455;52.710;6.502;2022-09-01T11:14:52;1.38;;;0.50;;
52554;SDS011;38455;52.710;6.502;2022-09-01T11:17:27;1.50;;;0.55;;
52554;SDS011;38455;52.710;6.502;2022-09-01T11:26:43;1.85;;;0.57;;
52554;SDS011;38455;52.710;6.502;2022-09-01T11:28:59;1.73;;;0.50;;
52554;SDS011;38455;52.710;6.502;2022-09-01T11:31:29;8.93;;;1.80;;
52554;SDS011;38455;52.710;6.502;2022-09-01T11:34:12;1.55;;;0.60;;
52554;SDS011;38455;52.710;6.502;2022-09-01T11:44:12;1.45;;;0.43;;
52554;SDS011;38455;52.710;6.502;2022-09-01T11:46:44;3.05;;;0.57;;
52554;SDS011;38455;52.710;6.502;2022-09-01T11:49:45;1.83;;;0.30;;
52554;SDS011;38455;52.710;6.502;2022-09-01T11:52:04;1.80;;;0.60;;
52554;SDS011;38455;52.710;6.502;2022-09-01T11:54:36;0.90;;;0.60;;
52554;SDS011;38455;52.710;6.502;2022-09-01T11:57:17;1.05;;;0.50;;
52554;SDS011;38455;52.710;6.502;2022-09-01T11:59:52;0.93;;;0.55;;
52554;SDS011;38455;52.710;6.502;2022-09-01T12:04:49;2.45;;;0.38;;
52554;SDS011;38455;52.710;6.502;2022-09-01T12:07:26;2.30;;;0.82;;
52554;SDS011;38455;52.710;6.502;2022-09-01T12:10:29;2.25;;;0.52;;
52554;SDS011;38455;52.710;6.502;2022-09-01T12:13:08;1.23;;;0.40;;
52554;SDS011;38455;52.710;6.502;2022-09-01T12:15:57;1.27;;;0.40;;
52554;SDS011;38455;52.710;6.502;2022-09-01T12:18:26;0.80;;;0.40;;
52554;SDS011;38455;52.710;6.502;2022-09-01T12:20:59;1.75;;;0.40;;
52554;SDS011;38455;52.710;6.502;2022-09-01T12:23:28;1.70;;;0.40;;
52554;SDS011;38455;52.710;6.502;2022-09-01T12:26:06;3.42;;;0.50;;
52554;SDS011;38455;52.710;6.502;2022-09-01T12:29:04;1.92;;;0.63;;
52554;SDS011;38455;52.710;6.502;2022-09-01T12:31:31;0.68;;;0.30;;
52554;SDS011;38455;52.710;6.502;2022-09-01T12:33:57;1.48;;;0.50;;
52554;SDS011;38455;52.710;6.502;2022-09-01T12:36:27;2.53;;;0.68;;
52554;SDS011;38455;52.710;6.502;2022-09-01T12:38:56;1.08;;;0.50;;
52554;SDS011;38455;52.710;6.502;2022-09-01T12:41:42;3.50;;;0.98;;
52554;SDS011;38455;52.710;6.502;2022-09-01T12:44:28;1.05;;;0.50;;
52554;SDS011;38455;52.710;6.502;2022-09-01T12:47:07;1.58;;;0.60;;
52554;SDS011;38455;52.710;6.502;2022-09-01T12:57:28;1.63;;;0.52;;
52554;SDS011;38455;52.710;6.502;2022-09-01T13:00:13;2.42;;;0.50;;
52554;SDS011;38455;52.710;6.502;2022-09-01T13:02:49;2.08;;;0.70;;
52554;SDS011;38455;52.710;6.502;2022-09-01T13:05:18;1.92;;;0.45;;
52554;SDS011;38455;52.710;6.502;2022-09-01T13:07:56;1.48;;;0.40;;
52554;SDS011;38455;52.710;6.502;2022-09-01T13:10:30;0.77;;;0.50;;
52554;SDS011;38455;52.710;6.502;2022-09-01T13:13:02;6.77;;;0.67;;
52554;SDS011;38455;52.710;6.502;2022-09-01T13:15:28;1.50;;;0.80;;
52554;SDS011;38455;52.710;6.502;2022-09-01T13:17:55;3.22;;;1.10;;
52554;SDS011;38455;52.710;6.502;2022-09-01T13:20:21;1.95;;;0.65;;
52554;SDS011;38455;52.710;6.502;2022-09-01T13:22:47;1.35;;;0.40;;
52554;SDS011;38455;52.710;6.502;2022-09-01T13:25:14;2.67;;;1.00;;
52554;SDS011;38455;52.710;6.502;2022-09-01T13:27:41;1.83;;;0.65;;
52554;SDS011;38455;52.710;6.502;2022-09-01T13:30:09;0.57;;;0.40;;
52554;SDS011;38455;52.710;6.502;2022-09-01T13:32:35;0.80;;;0.45;;
52554;SDS011;38455;52.710;6.502;2022-09-01T13:35:01;3.35;;;0.50;;
52554;SDS011;38455;52.710;6.502;2022-09-01T13:37:28;0.95;;;0.50;;
52554;SDS011;38455;52.710;6.502;2022-09-01T13:39:53;1.98;;;0.40;;
52554;SDS011;38455;52.710;6.502;2022-09-01T13:42:19;5.15;;;0.40;;
52554;SDS011;38455;52.710;6.502;2022-09-01T13:44:45;7.15;;;1.13;;
52554;SDS011;38455;52.710;6.502;2022-09-01T13:47:11;3.67;;;0.60;;
52554;SDS011;38455;52.710;6.502;2022-09-01T13:49:37;0.45;;;0.20;;
52554;SDS011;38455;52.710;6.502;2022-09-01T13:52:03;4.93;;;0.82;;
52554;SDS011;38455;52.710;6.502;2022-09-01T13:54:29;4.15;;;0.70;;
52554;SDS011;38455;52.710;6.502;2022-09-01T13:56:54;1.45;;;0.60;;
52554;SDS011;38455;52.710;6.502;2022-09-01T13:59:20;2.35;;;0.60;;
52554;SDS011;38455;52.710;6.502;2022-09-01T14:01:46;0.50;;;0.30;;
52554;SDS011;38455;52.710;6.502;2022-09-01T14:04:12;4.43;;;0.60;;
52554;SDS011;38455;52.710;6.502;2022-09-01T14:06:41;1.02;;;0.57;;
52554;SDS011;38455;52.710;6.502;2022-09-01T14:09:11;0.80;;;0.40;;
52554;SDS011;38455;52.710;6.502;2022-09-01T14:11:38;3.75;;;0.50;;
52554;SDS011;38455;52.710;6.502;2022-09-01T14:14:04;1.38;;;0.60;;
52554;SDS011;38455;52.710;6.502;2022-09-01T14:16:30;4.28;;;0.50;;
52554;SDS011;38455;52.710;6.502;2022-09-01T14:18:56;0.93;;;0.40;;
52554;SDS011;38455;52.710;6.502;2022-09-01T14:21:23;0.98;;;0.32;;
52554;SDS011;38455;52.710;6.502;2022-09-01T14:23:49;3.13;;;0.52;;
52554;SDS011;38455;52.710;6.502;2022-09-01T14:26:15;0.38;;;0.20;;
52554;SDS011;38455;52.710;6.502;2022-09-01T14:28:42;0.50;;;0.30;;
52554;SDS011;38455;52.710;6.502;2022-09-01T14:31:13;3.58;;;0.70;;
52554;SDS011;38455;52.710;6.502;2022-09-01T14:33:40;0.32;;;0.25;;
52554;SDS011;38455;52.710;6.502;2022-09-01T14:36:07;0.70;;;0.40;;
52554;SDS011;38455;52.710;6.502;2022-09-01T14:38:39;3.38;;;0.40;;
52554;SDS011;38455;52.710;6.502;2022-09-01T14:41:05;0.93;;;0.30;;
52554;SDS011;38455;52.710;6.502;2022-09-01T14:43:31;4.03;;;0.73;;
52554;SDS011;38455;52.710;6.502;2022-09-01T14:46:03;3.05;;;0.60;;
52554;SDS011;38455;52.710;6.502;2022-09-01T14:48:32;2.90;;;1.05;;
52554;SDS011;38455;52.710;6.502;2022-09-01T14:50:59;1.25;;;0.40;;
52554;SDS011;38455;52.710;6.502;2022-09-01T14:53:25;1.88;;;0.40;;
52554;SDS011;38455;52.710;6.502;2022-09-01T14:55:58;5.38;;;0.98;;
52554;SDS011;38455;52.710;6.502;2022-09-01T14:58:25;0.47;;;0.35;;
52554;SDS011;38455;52.710;6.502;2022-09-01T15:00:52;3.35;;;0.50;;
52554;SDS011;38455;52.710;6.502;2022-09-01T15:03:20;1.67;;;0.80;;
52554;SDS011;38455;52.710;6.502;2022-09-01T15:05:47;1.85;;;0.45;;
52554;SDS011;38455;52.710;6.502;2022-09-01T15:08:14;2.45;;;0.32;;
52554;SDS011;38455;52.710;6.502;2022-09-01T15:10:40;1.15;;;0.50;;
52554;SDS011;38455;52.710;6.502;2022-09-01T15:13:05;0.63;;;0.40;;
52554;SDS011;38455;52.710;6.502;2022-09-01T15:15:31;2.03;;;0.52;;
52554;SDS011;38455;52.710;6.502;2022-09-01T15:17:57;3.90;;;0.52;;
52554;SDS011;38455;52.710;6.502;2022-09-01T15:20:23;0.82;;;0.40;;
52554;SDS011;38455;52.710;6.502;2022-09-01T15:23:08;1.42;;;0.57;;
52554;SDS011;38455;52.710;6.502;2022-09-01T15:25:34;4.95;;;0.50;;
52554;SDS011;38455;52.710;6.502;2022-09-01T15:28:00;1.30;;;0.45;;
52554;SDS011;38455;52.710;6.502;2022-09-01T15:30:26;0.55;;;0.40;;
52554;SDS011;38455;52.710;6.502;2022-09-01T15:32:52;2.10;;;0.45;;
52554;SDS011;38455;52.710;6.502;2022-09-01T15:35:18;0.85;;;0.52;;
52554;SDS011;38455;52.710;6.502;2022-09-01T15:37:46;1.25;;;0.52;;
52554;SDS011;38455;52.710;6.502;2022-09-01T15:40:13;2.45;;;0.60;;
52554;SDS011;38455;52.710;6.502;2022-09-01T15:42:39;5.55;;;0.60;;
52554;SDS011;38455;52.710;6.502;2022-09-01T15:45:06;4.97;;;0.63;;
52554;SDS011;38455;52.710;6.502;2022-09-01T15:47:34;1.67;;;0.50;;
52554;SDS011;38455;52.710;6.502;2022-09-01T15:50:00;2.03;;;0.80;;
52554;SDS011;38455;52.710;6.502;2022-09-01T15:52:28;1.27;;;0.40;;
52554;SDS011;38455;52.710;6.502;2022-09-01T15:54:54;2.97;;;0.50;;
52554;SDS011;38455;52.710;6.502;2022-09-01T15:57:19;1.90;;;0.17;;
52554;SDS011;38455;52.710;6.502;2022-09-01T15:59:45;1.58;;;0.40;;
52554;SDS011;38455;52.710;6.502;2022-09-01T16:02:10;0.77;;;0.30;;